createdAt,value
2016-09-30T03:01:47.158Z,1011.18
2016-09-30T03:02:12.722Z,1011.18
2016-09-30T03:02:38.700Z,1011.15
2016-09-30T03:03:04.565Z,1011.15
2016-09-30T03:03:30.359Z,1011.15
2016-09-30T03:03:56.068Z,1011.15
2016-09-30T03:04:21.980Z,1011.18
2016-09-30T03:04:47.779Z,1011.18
2016-09-30T03:05:13.581Z,1011.16
2016-09-30T03:05:39.430Z,1011.19
2016-09-30T03:06:05.259Z,1011.17
2016-09-30T03:06:30.979Z,1011.15
2016-09-30T03:06:57.027Z,1011.17
2016-09-30T03:07:22.849Z,1011.14
2016-09-30T03:07:48.418Z,1011.13
2016-09-30T03:08:13.988Z,1011.15
2016-09-30T03:08:39.683Z,1011.12
2016-09-30T03:09:05.302Z,1011.17
2016-09-30T03:09:30.872Z,1011.15
2016-09-30T03:09:56.456Z,1011.18
2016-09-30T03:10:22.043Z,1011.22
2016-09-30T03:10:47.699Z,1011.19
2016-09-30T03:11:13.308Z,1011.2
2016-09-30T03:11:38.884Z,1011.24
2016-09-30T03:12:04.506Z,1011.19
2016-09-30T03:12:30.073Z,1011.15
2016-09-30T03:12:55.729Z,1011.19
2016-09-30T03:13:21.520Z,1011.14
2016-09-30T03:13:47.098Z,1011.17
2016-09-30T03:14:12.779Z,1011.12
2016-09-30T03:14:38.394Z,1011.13
2016-09-30T03:15:03.949Z,1011.12
2016-09-30T03:15:29.625Z,1011.15
2016-09-30T03:15:55.181Z,1011.17
2016-09-30T03:16:20.744Z,1011.14
2016-09-30T03:16:46.366Z,1011.17
2016-09-30T03:17:11.950Z,1011.14
2016-09-30T03:17:37.611Z,1011.15
2016-09-30T03:18:03.178Z,1011.17
2016-09-30T03:18:29.333Z,1011.17
2016-09-30T03:18:54.894Z,1011.18
2016-09-30T03:19:20.493Z,1011.15
2016-09-30T03:19:46.065Z,1011.2
2016-09-30T03:20:11.703Z,1011.22
2016-09-30T03:20:37.300Z,1011.2
2016-09-30T03:21:02.925Z,1011.21
2016-09-30T03:21:28.494Z,1011.21
2016-09-30T03:21:54.066Z,1011.19
2016-09-30T03:23:12.651Z,1011.23
2016-09-30T03:23:38.228Z,1011.27
2016-09-30T03:24:03.876Z,1011.23
2016-09-30T03:24:29.525Z,1011.24
2016-09-30T03:24:56.109Z,1011.26
2016-09-30T03:25:21.842Z,1011.24
2016-09-30T03:25:47.484Z,1011.25
2016-09-30T03:26:13.038Z,1011.29
2016-09-30T03:26:38.682Z,1011.26
2016-09-30T03:27:04.272Z,1011.28
2016-09-30T03:27:29.832Z,1011.29
2016-09-30T03:27:55.482Z,1011.3
2016-09-30T03:28:21.051Z,1011.31
2016-09-30T03:28:46.610Z,1011.29
2016-09-30T03:29:12.177Z,1011.31
2016-09-30T03:29:37.829Z,1011.34
2016-09-30T03:30:03.385Z,1011.37
2016-09-30T03:30:28.940Z,1011.34
2016-09-30T03:30:54.475Z,1011.34
2016-09-30T03:31:20.131Z,1011.3
2016-09-30T03:31:45.796Z,1011.35
2016-09-30T03:32:11.363Z,1011.38
2016-09-30T03:32:37.072Z,1011.39
2016-09-30T03:33:02.667Z,1011.38
2016-09-30T03:33:28.259Z,1011.42
2016-09-30T03:33:53.929Z,1011.45
2016-09-30T03:34:19.479Z,1011.43
2016-09-30T03:34:45.222Z,1011.4
2016-09-30T03:35:10.818Z,1011.43
2016-09-30T03:35:36.379Z,1011.41
2016-09-30T03:38:26.712Z,1011.41
2016-09-30T03:38:52.271Z,1011.44
2016-09-30T03:39:18.512Z,1011.39
2016-09-30T03:39:44.149Z,1011.39
2016-09-30T03:40:09.781Z,1011.41
2016-09-30T03:40:35.341Z,1011.38
2016-09-30T03:41:00.973Z,1011.34
2016-09-30T03:41:26.540Z,1011.42
2016-09-30T03:41:52.253Z,1011.39
2016-09-30T03:42:17.818Z,1011.39
2016-09-30T03:42:43.382Z,1011.37
2016-09-30T03:43:08.951Z,1011.34
2016-09-30T03:43:34.514Z,1011.4
2016-09-30T03:44:00.088Z,1011.4
2016-09-30T03:44:25.662Z,1011.4
2016-09-30T03:44:51.281Z,1011.39
2016-09-30T03:45:16.849Z,1011.41
2016-09-30T03:45:42.404Z,1011.39
2016-09-30T03:46:07.961Z,1011.4
2016-09-30T03:46:33.547Z,1011.45
2016-09-30T03:46:59.142Z,1011.42
2016-09-30T03:47:24.696Z,1011.4
2016-09-30T03:47:50.442Z,1011.43
2016-09-30T03:48:16.027Z,1011.4
2016-09-30T03:48:41.604Z,1011.43
2016-09-30T03:49:07.174Z,1011.41
2016-09-30T03:49:32.746Z,1011.44
2016-09-30T03:49:58.414Z,1011.45
2016-09-30T03:50:24.047Z,1011.42
2016-09-30T03:50:49.602Z,1011.47
2016-09-30T03:51:15.262Z,1011.45
2016-09-30T03:51:40.853Z,1011.45
2016-09-30T03:52:06.383Z,1011.48
2016-09-30T03:52:31.999Z,1011.47
2016-09-30T03:52:57.571Z,1011.44
2016-09-30T03:53:23.221Z,1011.47
2016-09-30T03:53:48.784Z,1011.5
2016-09-30T03:54:14.427Z,1011.46
2016-09-30T03:54:40.029Z,1011.47
2016-09-30T03:55:05.591Z,1011.49
2016-09-30T03:55:31.168Z,1011.45
2016-09-30T03:55:56.742Z,1011.43
2016-09-30T03:56:22.430Z,1011.44
2016-09-30T03:56:48.042Z,1011.45
2016-09-30T03:57:13.619Z,1011.45
2016-09-30T03:57:39.277Z,1011.49
2016-09-30T03:58:04.843Z,1011.53
2016-09-30T03:58:30.408Z,1011.54
2016-09-30T03:58:56.008Z,1011.55
2016-09-30T03:59:21.576Z,1011.56
2016-09-30T03:59:47.251Z,1011.51
2016-09-30T04:00:12.807Z,1011.58
2016-09-30T04:00:39.315Z,1011.56
2016-09-30T04:01:04.878Z,1011.54
2016-09-30T04:01:30.647Z,1011.5
2016-09-30T04:01:56.273Z,1011.53
2016-09-30T04:02:21.849Z,1011.56
2016-09-30T04:02:47.498Z,1011.52
2016-09-30T04:03:13.131Z,1011.54
2016-09-30T04:03:38.693Z,1011.58
2016-09-30T04:04:04.322Z,1011.53
2016-09-30T04:04:29.880Z,1011.53
2016-09-30T04:04:55.461Z,1011.56
2016-09-30T04:05:21.017Z,1011.59
2016-09-30T04:05:46.653Z,1011.58
2016-09-30T04:06:12.289Z,1011.55
2016-09-30T04:06:37.840Z,1011.55
2016-09-30T04:07:03.418Z,1011.57
2016-09-30T04:07:28.993Z,1011.56
2016-09-30T04:07:54.651Z,1011.56
2016-09-30T04:08:20.223Z,1011.57
2016-09-30T04:08:45.750Z,1011.56
2016-09-30T04:09:11.337Z,1011.54
2016-09-30T04:09:36.901Z,1011.57
2016-09-30T04:10:02.440Z,1011.59
2016-09-30T04:10:28.002Z,1011.58
2016-09-30T04:10:53.643Z,1011.57
2016-09-30T04:11:19.206Z,1011.59
2016-09-30T04:11:44.768Z,1011.61
2016-09-30T04:12:10.441Z,1011.56
2016-09-30T04:12:36.061Z,1011.63
2016-09-30T04:13:01.656Z,1011.65
2016-09-30T04:13:27.281Z,1011.61
2016-09-30T04:13:52.880Z,1011.63
2016-09-30T04:14:18.520Z,1011.61
2016-09-30T04:14:44.069Z,1011.59
2016-09-30T04:15:09.687Z,1011.61
2016-09-30T04:15:35.256Z,1011.66
2016-09-30T04:16:00.827Z,1011.6
2016-09-30T04:16:26.468Z,1011.63
2016-09-30T04:16:52.024Z,1011.6
2016-09-30T04:17:17.644Z,1011.62
2016-09-30T04:17:43.300Z,1011.65
2016-09-30T04:18:08.773Z,1011.63
2016-09-30T04:18:34.503Z,1011.58
2016-09-30T04:19:00.053Z,1011.63
2016-09-30T04:19:25.608Z,1011.59
2016-09-30T04:19:51.177Z,1011.62
2016-09-30T04:20:16.879Z,1011.59
2016-09-30T04:20:42.408Z,1011.61
2016-09-30T04:21:07.959Z,1011.56
2016-09-30T04:21:33.579Z,1011.6
2016-09-30T04:21:59.235Z,1011.56
2016-09-30T04:22:24.806Z,1011.59
2016-09-30T04:22:50.435Z,1011.59
2016-09-30T04:23:16.008Z,1011.6
2016-09-30T04:23:41.664Z,1011.66
2016-09-30T04:24:07.219Z,1011.6
2016-09-30T04:24:32.887Z,1011.59
2016-09-30T04:25:41.199Z,1011.61
2016-09-30T04:26:39.270Z,1011.58
2016-09-30T04:27:04.873Z,1011.62
2016-09-30T04:27:30.451Z,1011.59
2016-09-30T04:28:48.959Z,1011.58
2016-09-30T04:29:14.522Z,1011.6
2016-09-30T04:29:40.111Z,1011.59
2016-09-30T04:31:47.631Z,1011.66
2016-09-30T04:32:21.050Z,1011.63
2016-09-30T04:32:46.715Z,1011.63
2016-09-30T04:33:12.291Z,1011.64
2016-09-30T04:34:26.102Z,1011.65
2016-09-30T04:35:24.163Z,1011.59
2016-09-30T04:35:49.813Z,1011.57
2016-09-30T04:36:15.360Z,1011.56
2016-09-30T04:36:40.927Z,1011.58
2016-09-30T04:37:06.496Z,1011.55
2016-09-30T04:37:32.167Z,1011.57
2016-09-30T04:37:57.789Z,1011.61
2016-09-30T04:38:23.370Z,1011.59
2016-09-30T04:38:49.020Z,1011.61
2016-09-30T04:39:14.678Z,1011.66
2016-09-30T04:39:40.358Z,1011.69
2016-09-30T04:40:05.920Z,1011.66
2016-09-30T04:41:19.469Z,1011.72
2016-09-30T04:41:45.034Z,1011.74
2016-09-30T04:42:10.665Z,1011.74
2016-09-30T04:42:36.172Z,1011.77
2016-09-30T04:43:01.873Z,1011.78
2016-09-30T04:43:27.444Z,1011.75
2016-09-30T04:43:53.107Z,1011.8
2016-09-30T04:44:18.702Z,1011.76
2016-09-30T04:44:44.273Z,1011.8
2016-09-30T04:45:09.954Z,1011.8
2016-09-30T04:45:35.563Z,1011.8
2016-09-30T04:46:01.233Z,1011.79
2016-09-30T04:46:26.924Z,1011.79
2016-09-30T04:46:52.497Z,1011.78
2016-09-30T04:47:18.298Z,1011.82
2016-09-30T04:47:43.943Z,1011.82
2016-09-30T04:48:09.512Z,1011.8
2016-09-30T04:48:35.188Z,1011.8
2016-09-30T04:49:00.808Z,1011.83
2016-09-30T04:49:26.503Z,1011.83
2016-09-30T04:49:52.069Z,1011.83
2016-09-30T04:50:17.641Z,1011.82
2016-09-30T04:50:43.307Z,1011.83
2016-09-30T04:51:08.863Z,1011.89
2016-09-30T04:51:34.427Z,1011.86
2016-09-30T04:52:00.142Z,1011.88
2016-09-30T04:52:25.703Z,1011.83
2016-09-30T04:52:52.028Z,1011.89
2016-09-30T04:53:17.581Z,1011.87
2016-09-30T04:53:43.313Z,1011.9
2016-09-30T04:54:08.882Z,1011.89
2016-09-30T04:54:34.452Z,1011.88
2016-09-30T04:55:00.098Z,1011.91
2016-09-30T04:55:25.632Z,1011.91
2016-09-30T04:55:51.264Z,1011.94
2016-09-30T04:56:16.908Z,1011.88
2016-09-30T04:56:42.505Z,1011.86
2016-09-30T04:57:08.089Z,1011.85
2016-09-30T04:57:33.645Z,1011.85
2016-09-30T04:57:59.290Z,1011.84
2016-09-30T04:58:24.975Z,1011.89
2016-09-30T04:58:50.578Z,1011.92
2016-09-30T04:59:16.272Z,1011.85
2016-09-30T05:00:19.605Z,1011.84
2016-09-30T05:01:33.190Z,1011.85
2016-09-30T05:01:58.779Z,1011.85
2016-09-30T05:02:24.385Z,1011.84
2016-09-30T05:02:50.119Z,1011.86
2016-09-30T05:03:15.705Z,1011.86
2016-09-30T05:03:41.327Z,1011.87
2016-09-30T05:04:07.188Z,1011.88
2016-09-30T05:04:32.736Z,1011.89
2016-09-30T05:04:58.380Z,1011.88
2016-09-30T05:05:24.037Z,1011.85
2016-09-30T05:05:49.646Z,1011.84
2016-09-30T05:06:15.245Z,1011.86
2016-09-30T05:06:40.816Z,1011.85
2016-09-30T05:07:06.480Z,1011.86
2016-09-30T05:07:32.097Z,1011.9
2016-09-30T05:07:57.677Z,1011.89
2016-09-30T05:08:23.241Z,1011.92
2016-09-30T05:08:48.807Z,1011.92
2016-09-30T05:09:14.399Z,1011.9
2016-09-30T05:09:39.969Z,1011.93
2016-09-30T05:10:05.543Z,1011.89
2016-09-30T05:10:31.164Z,1011.94
2016-09-30T05:10:56.736Z,1011.95
2016-09-30T05:11:22.335Z,1011.93
2016-09-30T05:11:47.879Z,1011.94
2016-09-30T05:12:13.435Z,1011.97
2016-09-30T05:12:39.008Z,1011.96
2016-09-30T05:13:04.619Z,1011.95
2016-09-30T05:13:30.207Z,1011.97
2016-09-30T05:13:55.774Z,1011.98
2016-09-30T05:14:21.370Z,1011.96
2016-09-30T05:14:47.125Z,1011.97
2016-09-30T05:15:12.805Z,1011.96
2016-09-30T05:15:38.469Z,1011.97
2016-09-30T05:16:04.103Z,1011.97
2016-09-30T05:16:29.647Z,1011.98
2016-09-30T05:16:55.277Z,1011.96
2016-09-30T05:17:21.032Z,1011.97
2016-09-30T05:17:46.817Z,1011.96
2016-09-30T05:18:12.486Z,1011.93
2016-09-30T05:18:38.170Z,1011.93
2016-09-30T05:19:03.811Z,1011.93
2016-09-30T05:19:29.374Z,1012
2016-09-30T05:19:54.929Z,1011.97
2016-09-30T05:20:20.639Z,1011.97
2016-09-30T05:20:46.221Z,1012.01
2016-09-30T05:21:11.822Z,1011.97
2016-09-30T05:21:37.414Z,1011.97
2016-09-30T05:22:02.967Z,1011.94
2016-09-30T05:22:28.612Z,1011.91
2016-09-30T05:22:55.122Z,1011.93
2016-09-30T05:23:20.809Z,1011.89
2016-09-30T05:23:46.452Z,1011.88
2016-09-30T05:24:12.010Z,1011.84
2016-09-30T05:24:37.715Z,1011.85
2016-09-30T05:25:03.291Z,1011.86
2016-09-30T05:25:29.759Z,1011.84
2016-09-30T05:25:55.321Z,1011.79
2016-09-30T05:26:20.914Z,1011.8
2016-09-30T05:26:46.473Z,1011.82
2016-09-30T05:27:12.165Z,1011.84
2016-09-30T05:27:37.738Z,1011.83
2016-09-30T05:28:03.314Z,1011.84
2016-09-30T05:28:28.959Z,1011.87
2016-09-30T05:28:54.900Z,1011.87
2016-09-30T05:29:20.556Z,1011.88
2016-09-30T05:29:46.221Z,1011.88
2016-09-30T05:31:42.719Z,1011.87
2016-09-30T05:32:08.291Z,1011.85
2016-09-30T05:32:33.913Z,1011.83
2016-09-30T05:32:59.529Z,1011.82
2016-09-30T05:33:25.077Z,1011.76
2016-09-30T05:33:50.634Z,1011.8
2016-09-30T05:34:16.176Z,1011.83
2016-09-30T05:34:41.802Z,1011.83
2016-09-30T05:35:07.362Z,1011.86
2016-09-30T05:35:32.920Z,1011.87
2016-09-30T05:35:58.472Z,1011.91
2016-09-30T05:36:24.049Z,1011.88
2016-09-30T05:36:49.640Z,1011.88
2016-09-30T05:37:15.214Z,1011.88
2016-09-30T05:37:40.850Z,1011.88
2016-09-30T05:38:06.424Z,1011.85
2016-09-30T05:38:32.089Z,1011.82
2016-09-30T05:38:57.679Z,1011.83
2016-09-30T05:39:23.252Z,1011.81
2016-09-30T05:39:48.944Z,1011.83
2016-09-30T05:40:14.549Z,1011.83
2016-09-30T05:40:40.189Z,1011.86
2016-09-30T05:41:05.783Z,1011.87
2016-09-30T05:41:31.435Z,1011.86
2016-09-30T05:41:57.078Z,1011.89
2016-09-30T05:42:22.729Z,1011.88
2016-09-30T05:42:48.376Z,1011.84
2016-09-30T05:43:13.966Z,1011.82
2016-09-30T05:43:39.536Z,1011.84
2016-09-30T05:44:05.249Z,1011.78
2016-09-30T05:44:30.838Z,1011.8
2016-09-30T05:44:56.455Z,1011.78
2016-09-30T05:45:22.069Z,1011.81
2016-09-30T05:45:47.617Z,1011.8
2016-09-30T05:46:13.199Z,1011.76
2016-09-30T05:46:38.794Z,1011.8
2016-09-30T05:47:42.045Z,1011.89
2016-09-30T05:48:07.599Z,1011.89
2016-09-30T05:48:33.224Z,1011.9
2016-09-30T05:48:58.842Z,1011.91
2016-09-30T05:49:24.400Z,1011.91
2016-09-30T05:49:49.989Z,1011.92
2016-09-30T05:50:15.549Z,1011.92
2016-09-30T05:50:41.256Z,1011.95
2016-09-30T05:51:06.806Z,1011.94
2016-09-30T05:51:32.353Z,1011.95
2016-09-30T05:51:57.943Z,1011.99
2016-09-30T05:52:23.502Z,1011.94
2016-09-30T05:52:49.165Z,1011.99
2016-09-30T05:53:14.878Z,1011.96
2016-09-30T05:53:40.443Z,1011.93
2016-09-30T05:54:06.001Z,1011.94
2016-09-30T05:54:31.573Z,1011.91
2016-09-30T05:54:57.255Z,1011.95
2016-09-30T05:55:22.919Z,1011.96
2016-09-30T05:55:48.467Z,1011.95
2016-09-30T05:56:14.075Z,1011.94
2016-09-30T05:56:39.637Z,1011.95
2016-09-30T05:57:05.164Z,1011.92
2016-09-30T05:57:30.729Z,1011.92
2016-09-30T05:57:56.398Z,1011.96
2016-09-30T05:58:21.944Z,1011.92
2016-09-30T05:58:47.508Z,1011.96
2016-09-30T05:59:13.138Z,1011.93
2016-09-30T05:59:38.684Z,1011.99
2016-09-30T06:00:04.247Z,1012.01
2016-09-30T06:00:29.821Z,1011.93
2016-09-30T06:01:33.285Z,1011.97
2016-09-30T06:01:58.853Z,1011.95
2016-09-30T06:02:24.411Z,1011.91
2016-09-30T06:03:42.957Z,1011.89
2016-09-30T06:04:08.498Z,1011.88
2016-09-30T06:04:34.063Z,1011.91
2016-09-30T06:04:59.648Z,1011.91
2016-09-30T06:05:25.203Z,1011.91
2016-09-30T06:05:50.769Z,1011.86
2016-09-30T06:06:16.358Z,1011.87
2016-09-30T06:06:41.936Z,1011.89
2016-09-30T06:07:07.520Z,1011.86
2016-09-30T06:07:33.078Z,1011.89
2016-09-30T06:07:58.628Z,1011.87
2016-09-30T06:08:24.191Z,1011.89
2016-09-30T06:08:49.745Z,1011.92
2016-09-30T06:09:15.334Z,1011.94
2016-09-30T06:09:40.922Z,1011.92
2016-09-30T06:10:06.482Z,1011.94
2016-09-30T06:10:32.044Z,1011.97
2016-09-30T06:10:57.703Z,1011.9
2016-09-30T06:11:23.298Z,1011.96
2016-09-30T06:11:48.848Z,1012
2016-09-30T06:12:14.421Z,1011.94
2016-09-30T06:12:40.076Z,1011.94
2016-09-30T06:13:05.630Z,1011.94
2016-09-30T06:13:31.231Z,1011.92
2016-09-30T06:14:49.881Z,1011.87
2016-09-30T06:15:15.423Z,1011.9
2016-09-30T06:15:40.998Z,1011.9
2016-09-30T06:16:06.619Z,1011.87
2016-09-30T06:16:32.218Z,1011.9
2016-09-30T06:16:57.779Z,1011.9
2016-09-30T06:17:23.336Z,1011.91
2016-09-30T06:17:48.911Z,1011.94
2016-09-30T06:18:14.471Z,1011.95
2016-09-30T06:18:40.028Z,1011.97
2016-09-30T06:19:05.591Z,1011.93
2016-09-30T06:19:31.163Z,1011.93
2016-09-30T06:19:56.797Z,1011.97
2016-09-30T06:20:22.362Z,1011.94
2016-09-30T06:20:47.912Z,1011.96
2016-09-30T06:21:13.474Z,1012
2016-09-30T06:21:39.132Z,1011.99
2016-09-30T06:22:04.685Z,1011.99
2016-09-30T06:22:30.223Z,1012.02
2016-09-30T06:22:55.814Z,1012
2016-09-30T06:23:21.349Z,1011.96
2016-09-30T06:23:46.913Z,1011.98
2016-09-30T06:24:12.476Z,1012.02
2016-09-30T06:24:38.014Z,1012.01
2016-09-30T06:25:56.572Z,1012
2016-09-30T06:26:22.171Z,1011.98
2016-09-30T06:26:47.740Z,1011.97
2016-09-30T06:27:13.304Z,1011.97
2016-09-30T06:27:38.862Z,1011.94
2016-09-30T06:28:04.433Z,1011.91
2016-09-30T06:28:29.974Z,1011.93
2016-09-30T06:28:55.536Z,1011.96
2016-09-30T06:29:21.087Z,1011.96
2016-09-30T06:29:46.635Z,1011.93
2016-09-30T06:30:12.197Z,1011.99
2016-09-30T06:30:37.765Z,1012
2016-09-30T06:31:03.309Z,1012
2016-09-30T06:31:28.874Z,1011.98
2016-09-30T06:31:54.425Z,1012
2016-09-30T06:32:19.967Z,1011.99
2016-09-30T06:32:45.499Z,1012.01
2016-09-30T06:33:11.060Z,1012.02
2016-09-30T06:33:36.675Z,1012
2016-09-30T06:34:02.221Z,1012.05
2016-09-30T06:34:27.790Z,1012.03
2016-09-30T06:34:53.348Z,1012.01
2016-09-30T06:35:18.906Z,1012.02
2016-09-30T06:35:44.427Z,1012.03
2016-09-30T06:36:09.970Z,1012.09
2016-09-30T06:36:35.513Z,1012.07
2016-09-30T06:37:01.059Z,1012.1
2016-09-30T06:37:26.615Z,1012.09
2016-09-30T06:37:52.165Z,1012.06
2016-09-30T06:38:17.727Z,1012.06
2016-09-30T06:38:43.261Z,1012.05
2016-09-30T06:39:08.802Z,1012.06
2016-09-30T06:39:34.381Z,1012.05
2016-09-30T06:39:59.944Z,1012.01
2016-09-30T06:40:25.457Z,1012.06
2016-09-30T06:40:50.996Z,1012.05
2016-09-30T06:41:16.561Z,1012.07
2016-09-30T06:41:42.087Z,1012.07
2016-09-30T06:42:07.628Z,1012.12
2016-09-30T06:42:33.166Z,1012.13
2016-09-30T06:42:58.764Z,1012.08
2016-09-30T06:43:24.346Z,1012.1
2016-09-30T06:43:49.885Z,1012.15
2016-09-30T06:44:15.436Z,1012.11
2016-09-30T06:44:40.999Z,1012.15
2016-09-30T06:45:06.542Z,1012.07
2016-09-30T06:45:32.106Z,1012.13
2016-09-30T06:45:57.678Z,1012.13
2016-09-30T06:46:23.237Z,1012.09
2016-09-30T06:46:48.784Z,1012.11
2016-09-30T06:47:14.316Z,1012.04
2016-09-30T06:47:39.897Z,1012.03
2016-09-30T06:48:05.428Z,1012.04
2016-09-30T06:48:31.017Z,1012.03
2016-09-30T06:48:56.530Z,1012.05
2016-09-30T06:49:22.110Z,1012.02
2016-09-30T06:49:47.651Z,1012.05
2016-09-30T06:50:13.223Z,1012.05
2016-09-30T06:50:38.783Z,1012.04
2016-09-30T06:51:04.335Z,1012.04
2016-09-30T06:51:30.003Z,1012.07
2016-09-30T06:51:55.551Z,1012.03
2016-09-30T06:52:21.109Z,1012.06
2016-09-30T06:52:46.658Z,1012.08
2016-09-30T06:53:12.207Z,1012.08
2016-09-30T06:53:37.764Z,1012.08
2016-09-30T06:54:03.325Z,1012.15
2016-09-30T06:54:28.897Z,1012.11
2016-09-30T06:54:54.451Z,1012.11
2016-09-30T06:55:19.994Z,1012.13
2016-09-30T06:55:45.602Z,1012.13
2016-09-30T06:56:11.253Z,1012.15
2016-09-30T06:56:36.816Z,1012.12
2016-09-30T06:57:02.398Z,1012.08
2016-09-30T06:57:28.003Z,1012.12
2016-09-30T06:57:53.580Z,1012.08
2016-09-30T06:58:19.173Z,1012.08
2016-09-30T06:58:44.809Z,1012.06
2016-09-30T06:59:10.366Z,1012.07
2016-09-30T06:59:36.070Z,1012.11
2016-09-30T07:00:49.505Z,1012.07
2016-09-30T07:01:15.065Z,1012.05
2016-09-30T07:01:40.657Z,1012.12
2016-09-30T07:02:06.217Z,1012.14
2016-09-30T07:02:31.846Z,1012.14
2016-09-30T07:02:57.411Z,1012.14
2016-09-30T07:03:22.980Z,1012.13
2016-09-30T07:03:48.551Z,1012.16
2016-09-30T07:04:14.125Z,1012.18
2016-09-30T07:04:39.700Z,1012.23
2016-09-30T07:05:05.276Z,1012.22
2016-09-30T07:05:30.844Z,1012.19
2016-09-30T07:06:21.998Z,1012.25
2016-09-30T07:06:47.569Z,1012.23
2016-09-30T07:07:13.163Z,1012.23
2016-09-30T07:07:38.710Z,1012.27
2016-09-30T07:08:04.383Z,1012.23
2016-09-30T07:08:29.944Z,1012.27
2016-09-30T07:08:55.522Z,1012.28
2016-09-30T07:09:21.203Z,1012.3
2016-09-30T07:09:46.784Z,1012.3
2016-09-30T07:10:12.348Z,1012.31
2016-09-30T07:10:38.005Z,1012.3
2016-09-30T07:11:03.588Z,1012.31
2016-09-30T07:11:29.171Z,1012.3
2016-09-30T07:11:54.782Z,1012.31
2016-09-30T07:12:20.390Z,1012.32
2016-09-30T07:12:45.928Z,1012.36
2016-09-30T07:13:11.502Z,1012.35
2016-09-30T07:13:37.182Z,1012.36
2016-09-30T07:14:02.758Z,1012.36
2016-09-30T07:14:28.321Z,1012.35
2016-09-30T07:14:53.888Z,1012.36
2016-09-30T07:15:19.465Z,1012.37
2016-09-30T07:15:45.023Z,1012.35
2016-09-30T07:16:10.594Z,1012.36
2016-09-30T07:16:36.180Z,1012.31
2016-09-30T07:17:01.791Z,1012.36
2016-09-30T07:17:27.399Z,1012.37
2016-09-30T07:17:52.966Z,1012.37
2016-09-30T07:18:18.534Z,1012.33
2016-09-30T07:18:44.091Z,1012.35
2016-09-30T07:19:09.662Z,1012.35
2016-09-30T07:19:35.242Z,1012.35
2016-09-30T07:20:00.816Z,1012.38
2016-09-30T07:20:26.380Z,1012.34
2016-09-30T07:20:51.958Z,1012.33
2016-09-30T07:21:50.067Z,1012.39
2016-09-30T07:22:15.837Z,1012.39
2016-09-30T07:22:41.439Z,1012.4
2016-09-30T07:23:07.008Z,1012.41
2016-09-30T07:23:32.571Z,1012.4
2016-09-30T07:23:58.116Z,1012.38
2016-09-30T07:24:23.673Z,1012.42
2016-09-30T07:24:49.215Z,1012.42
2016-09-30T07:25:14.820Z,1012.46
2016-09-30T07:25:40.374Z,1012.49
2016-09-30T07:26:05.928Z,1012.47
2016-09-30T07:26:31.482Z,1012.49
2016-09-30T07:26:57.043Z,1012.49
2016-09-30T07:27:22.589Z,1012.54
2016-09-30T07:27:48.162Z,1012.51
2016-09-30T07:28:13.818Z,1012.5
2016-09-30T07:28:39.376Z,1012.51
2016-09-30T07:29:04.948Z,1012.53
2016-09-30T07:29:30.501Z,1012.56
2016-09-30T07:29:56.043Z,1012.51
2016-09-30T07:30:21.620Z,1012.49
2016-09-30T07:30:47.167Z,1012.51
2016-09-30T07:31:12.738Z,1012.49
2016-09-30T07:31:38.321Z,1012.47
2016-09-30T07:32:03.930Z,1012.47
2016-09-30T07:32:29.487Z,1012.45
2016-09-30T07:32:55.056Z,1012.47
2016-09-30T07:33:20.710Z,1012.47
2016-09-30T07:33:46.272Z,1012.5
2016-09-30T07:34:11.833Z,1012.5
2016-09-30T07:34:37.375Z,1012.49
2016-09-30T07:35:02.933Z,1012.5
2016-09-30T07:35:28.476Z,1012.48
2016-09-30T07:35:54.033Z,1012.47
2016-09-30T07:36:19.711Z,1012.48
2016-09-30T07:36:45.277Z,1012.51
2016-09-30T07:37:10.830Z,1012.5
2016-09-30T07:37:36.377Z,1012.52
2016-09-30T07:38:01.959Z,1012.51
2016-09-30T07:38:27.511Z,1012.5
2016-09-30T07:38:53.063Z,1012.51
2016-09-30T07:39:18.631Z,1012.49
2016-09-30T07:39:44.251Z,1012.53
2016-09-30T07:40:09.841Z,1012.52
2016-09-30T07:40:35.397Z,1012.53
2016-09-30T07:41:00.970Z,1012.5
2016-09-30T07:41:26.530Z,1012.56
2016-09-30T07:41:52.093Z,1012.56
2016-09-30T07:42:50.225Z,1012.55
2016-09-30T07:43:15.771Z,1012.52
2016-09-30T07:43:41.321Z,1012.53
2016-09-30T07:44:06.919Z,1012.48
2016-09-30T07:44:32.493Z,1012.53
2016-09-30T07:44:58.050Z,1012.48
2016-09-30T07:45:23.616Z,1012.49
2016-09-30T07:45:49.266Z,1012.54
2016-09-30T07:46:14.844Z,1012.5
2016-09-30T07:46:40.410Z,1012.49
2016-09-30T07:47:06.092Z,1012.47
2016-09-30T07:47:31.687Z,1012.49
2016-09-30T07:47:57.255Z,1012.5
2016-09-30T07:48:22.822Z,1012.54
2016-09-30T07:48:48.399Z,1012.56
2016-09-30T07:49:13.954Z,1012.54
2016-09-30T07:49:39.525Z,1012.52
2016-09-30T07:50:05.108Z,1012.5
2016-09-30T07:50:30.688Z,1012.52
2016-09-30T07:50:56.265Z,1012.53
2016-09-30T07:51:21.897Z,1012.57
2016-09-30T07:51:47.469Z,1012.56
2016-09-30T07:52:13.130Z,1012.59
2016-09-30T07:52:38.701Z,1012.6
2016-09-30T07:53:04.258Z,1012.59
2016-09-30T07:53:29.821Z,1012.61
2016-09-30T07:53:55.391Z,1012.6
2016-09-30T07:54:20.961Z,1012.54
2016-09-30T07:54:46.519Z,1012.58
2016-09-30T07:55:12.086Z,1012.55
2016-09-30T07:55:37.693Z,1012.56
2016-09-30T07:56:46.015Z,1012.6
2016-09-30T07:57:11.579Z,1012.58
2016-09-30T07:57:37.124Z,1012.58
2016-09-30T07:58:02.691Z,1012.62
2016-09-30T07:58:28.285Z,1012.61
2016-09-30T07:59:19.409Z,1012.6
2016-09-30T07:59:44.976Z,1012.61
2016-09-30T08:00:53.287Z,1012.59
2016-09-30T08:01:18.885Z,1012.55
2016-09-30T08:01:44.439Z,1012.6
2016-09-30T08:02:09.989Z,1012.57
2016-09-30T08:02:35.549Z,1012.62
2016-09-30T08:03:01.238Z,1012.62
2016-09-30T08:03:26.811Z,1012.63
2016-09-30T08:03:52.373Z,1012.66
2016-09-30T08:04:17.941Z,1012.65
2016-09-30T08:04:43.531Z,1012.63
2016-09-30T08:05:09.104Z,1012.66
2016-09-30T08:05:34.679Z,1012.7
2016-09-30T08:08:34.968Z,1012.74
2016-09-30T08:09:00.548Z,1012.71
2016-09-30T08:09:26.109Z,1012.73
2016-09-30T08:09:51.682Z,1012.73
2016-09-30T08:10:17.256Z,1012.77
2016-09-30T08:10:42.822Z,1012.75
2016-09-30T08:11:08.389Z,1012.75
2016-09-30T08:11:33.948Z,1012.76
2016-09-30T08:11:59.517Z,1012.76
2016-09-30T08:12:25.067Z,1012.77
2016-09-30T08:12:50.626Z,1012.78
2016-09-30T08:13:16.220Z,1012.8
2016-09-30T08:13:41.957Z,1012.8
2016-09-30T08:14:07.519Z,1012.82
2016-09-30T08:14:33.107Z,1012.81
2016-09-30T08:15:46.581Z,1012.86
2016-09-30T08:16:12.135Z,1012.89
2016-09-30T08:16:37.704Z,1012.88
2016-09-30T08:17:51.146Z,1012.94
2016-09-30T08:18:16.722Z,1012.89
2016-09-30T08:18:42.283Z,1012.89
2016-09-30T08:19:07.836Z,1012.93
2016-09-30T08:19:33.426Z,1012.92
2016-09-30T08:19:58.970Z,1012.9
2016-09-30T08:20:24.527Z,1012.88
2016-09-30T08:20:50.086Z,1012.92
2016-09-30T08:21:15.669Z,1012.94
2016-09-30T08:21:41.248Z,1012.91
2016-09-30T08:22:06.816Z,1012.93
2016-09-30T08:22:32.500Z,1012.92
2016-09-30T08:22:58.058Z,1012.98
2016-09-30T08:23:23.670Z,1012.93
2016-09-30T08:23:49.233Z,1012.93
2016-09-30T08:24:14.795Z,1012.95
2016-09-30T08:24:40.459Z,1012.91
2016-09-30T08:25:06.028Z,1012.94
2016-09-30T08:25:31.656Z,1012.93
2016-09-30T08:25:57.207Z,1012.92
2016-09-30T08:26:22.783Z,1012.92
2016-09-30T08:26:48.336Z,1012.93
2016-09-30T08:27:13.907Z,1012.94
2016-09-30T08:27:39.479Z,1012.92
2016-09-30T08:28:05.038Z,1012.96
2016-09-30T08:28:30.656Z,1012.95
2016-09-30T08:28:56.283Z,1012.96
2016-09-30T08:29:21.758Z,1012.94
2016-09-30T08:29:47.374Z,1012.92
2016-09-30T08:30:12.941Z,1012.87
2016-09-30T08:30:38.502Z,1012.93
2016-09-30T08:31:04.057Z,1012.89
2016-09-30T08:31:29.637Z,1012.93
2016-09-30T08:31:55.187Z,1012.91
2016-09-30T08:32:20.753Z,1012.94
2016-09-30T08:32:46.318Z,1012.95
2016-09-30T08:33:12.104Z,1012.94
2016-09-30T08:33:37.706Z,1012.96
2016-09-30T08:34:03.275Z,1012.97
2016-09-30T08:34:28.868Z,1013
2016-09-30T08:34:54.403Z,1013
2016-09-30T08:35:19.954Z,1013
2016-09-30T08:35:45.559Z,1012.97
2016-09-30T08:36:11.136Z,1012.94
2016-09-30T08:36:36.713Z,1012.95
2016-09-30T08:37:02.270Z,1012.98